Time;durP1;ratioP1;P1;durP2;ratioP2;P2;SDS_P1;SDS_P2;PMS_P1;PMS_P2;Temp;Humidity;BMP_temperature;BMP_pressure;BME280_temperature;BME280_humidity;BME280_pressure;Samples;Min_cycle;Max_cycle;Signal;HPM_P1;HPM_P2
2021/09/29 00:03:26;;;;;;;15.52;11.10;;;;;;;25.23;47.82;95393.41;5063661;22;20076;-72
2021/09/29 00:05:51;;;;;;;15.77;10.38;;;;;;;25.21;47.51;95388.44;5006587;28;20073;-72
2021/09/29 00:08:17;;;;;;;13.55;9.88;;;;;;;25.19;47.71;95388.22;5006623;28;20109;-72
2021/09/29 00:10:42;;;;;;;14.70;10.90;;;;;;;25.18;47.27;95392.19;5022269;28;20025;-72
2021/09/29 00:13:08;;;;;;;14.48;10.50;;;;;;;25.14;47.28;95386.28;5006691;28;20025;-72
2021/09/29 00:15:34;;;;;;;13.98;10.43;;;;;;;25.20;47.88;95389.72;5006630;28;20427;-72
2021/09/29 00:17:59;;;;;;;14.68;10.25;;;;;;;25.21;47.60;95391.16;5006762;28;20022;-72
2021/09/29 00:20:25;;;;;;;13.85;10.07;;;;;;;25.21;47.96;95396.63;5005706;28;20026;-72
2021/09/29 00:22:50;;;;;;;13.98;10.73;;;;;;;25.19;47.79;95393.69;5004704;28;20033;-72
2021/09/29 00:25:16;;;;;;;13.50;10.23;;;;;;;25.14;47.14;95386.28;5006291;28;20030;-72
2021/09/29 00:27:42;;;;;;;13.93;11.15;;;;;;;25.18;47.96;95397.66;5006445;28;20072;-73
2021/09/29 00:30:08;;;;;;;12.95;9.32;;;;;;;25.17;47.32;95396.19;5006758;28;20026;-72
2021/09/29 00:32:35;;;;;;;13.50;10.35;;;;;;;25.17;47.95;95390.72;5006477;28;20499;-73
2021/09/29 00:35:01;;;;;;;14.55;10.30;;;;;;;25.16;47.66;95391.97;5006996;28;20044;-72
2021/09/29 00:37:26;;;;;;;13.55;10.05;;;;;;;25.18;47.56;95386.72;5006873;28;20084;-72
2021/09/29 00:39:52;;;;;;;12.88;9.52;;;;;;;25.16;47.64;95389.25;5006707;28;20474;-73
2021/09/29 00:42:17;;;;;;;14.05;9.43;;;;;;;25.17;48.06;95396.19;5007263;28;20021;-72
2021/09/29 00:44:43;;;;;;;14.15;10.07;;;;;;;25.16;47.66;95394.72;5012462;28;20496;-72
2021/09/29 00:47:08;;;;;;;13.30;9.82;;;;;;;25.17;47.78;95396.19;5026007;28;20397;-72
2021/09/29 00:49:34;;;;;;;13.02;9.68;;;;;;;25.17;47.61;95390.72;5024894;28;20025;-72
2021/09/29 00:51:59;;;;;;;13.38;9.57;;;;;;;25.16;47.67;95394.72;5026126;28;20029;-72
2021/09/29 00:54:28;;;;;;;12.70;9.30;;;;;;;25.15;47.19;95387.75;5041127;28;20017;-72
2021/09/29 00:56:54;;;;;;;12.63;9.70;;;;;;;25.16;47.79;95389.25;5025845;28;20068;-72
2021/09/29 00:59:20;;;;;;;12.55;9.40;;;;;;;25.15;47.47;95382.28;5025828;28;20029;-72
2021/09/29 01:01:46;;;;;;;12.38;9.45;;;;;;;25.15;47.58;95382.28;5010990;28;20049;-72
2021/09/29 01:04:11;;;;;;;13.48;9.23;;;;;;;25.16;47.72;95383.78;4986509;28;20050;-72
2021/09/29 01:06:38;;;;;;;11.48;8.77;;;;;;;25.17;47.56;95387.25;4968803;28;20057;-72
2021/09/29 01:09:23;;;;;;;11.45;8.20;;;;;;;25.16;47.30;95389.25;4986433;28;20034;-71
2021/09/29 01:12:10;;;;;;;12.00;8.15;;;;;;;25.14;47.32;95383.56;4985293;28;20072;-72
2021/09/29 01:14:57;;;;;;;10.48;8.20;;;;;;;25.04;47.19;95382.41;4984875;28;20038;-72
2021/09/29 01:17:23;;;;;;;13.07;8.63;;;;;;;25.11;47.74;95392.03;4985317;28;20404;-72
2021/09/29 01:20:08;;;;;;;11.10;8.63;;;;;;;25.11;47.46;95387.31;4985370;28;20022;-72
2021/09/29 01:22:39;;;;;;;10.77;8.10;;;;;;;25.13;47.46;95389.53;4985993;28;20034;-72
2021/09/29 01:25:06;;;;;;;12.07;8.75;;;;;;;25.04;47.65;95376.94;5014098;28;20021;-72
2021/09/29 01:27:32;;;;;;;10.45;7.82;;;;;;;25.12;47.15;95388.03;5024404;28;20152;-72
2021/09/29 01:29:57;;;;;;;12.10;7.80;;;;;;;25.12;47.40;95383.31;5025828;28;20021;-72
2021/09/29 01:32:22;;;;;;;12.05;7.47;;;;;;;25.07;47.22;95326.72;5042481;28;20511;-72
2021/09/29 01:34:51;;;;;;;10.05;6.80;;;;;;;25.11;47.06;95395.50;5027947;28;20110;-72
2021/09/29 01:37:17;;;;;;;10.50;7.72;;;;;;;25.10;47.07;95402.22;5029648;28;20029;-72
2021/09/29 01:39:42;;;;;;;8.55;6.63;;;;;;;25.08;47.25;95399.28;5028204;28;20021;-72
2021/09/29 01:42:08;;;;;;;9.90;7.05;;;;;;;25.07;47.19;95403.25;5028202;28;20025;-72
2021/09/29 01:44:33;;;;;;;10.70;6.85;;;;;;;25.07;47.03;95397.78;5029044;28;20030;-72
2021/09/29 01:47:00;;;;;;;9.50;7.13;;;;;;;25.08;46.96;95402.00;5028976;28;20108;-72
2021/09/29 01:49:36;;;;;;;9.98;6.72;;;;;;;25.09;46.97;95405.47;5029007;28;20033;-71
2021/09/29 01:52:02;;;;;;;8.82;6.95;;;;;;;25.08;47.09;95399.28;5027946;28;20032;-72
2021/09/29 01:54:28;;;;;;;9.57;6.57;;;;;;;25.07;47.11;95397.78;5044197;28;20464;-72
2021/09/29 01:56:53;;;;;;;8.80;6.25;;;;;;;25.08;47.35;95393.81;5027802;28;20101;-72
2021/09/29 01:59:19;;;;;;;9.43;6.45;;;;;;;25.07;46.97;95397.78;5027643;28;20028;-72
2021/09/29 02:01:44;;;;;;;11.23;7.18;;;;;;;25.07;46.74;95402.50;5044286;28;20494;-73
2021/09/29 02:04:11;;;;;;;8.15;5.90;;;;;;;25.07;46.78;95389.56;5027368;28;20053;-72
2021/09/29 02:06:46;;;;;;;9.73;6.22;;;;;;;25.06;47.03;95385.34;5028733;28;20025;-72
2021/09/29 02:09:12;;;;;;;8.38;5.95;;;;;;;25.02;46.62;95387.66;5029254;28;20029;-72
2021/09/29 02:11:37;;;;;;;9.23;5.88;;;;;;;25.05;47.09;95389.34;5027538;28;20032;-72
2021/09/29 02:14:03;;;;;;;9.75;5.80;;;;;;;25.04;47.07;95382.41;5028670;28;20030;-72
2021/09/29 02:16:29;;;;;;;7.40;6.28;;;;;;;25.03;46.95;95397.31;5028548;28;20132;-73
2021/09/29 02:18:55;;;;;;;8.65;5.85;;;;;;;25.05;47.13;95400.28;5028465;28;20104;-72
2021/09/29 02:21:20;;;;;;;9.18;5.82;;;;;;;25.03;46.49;95397.31;5028331;28;20036;-72
2021/09/29 02:23:46;;;;;;;8.65;5.65;;;;;;;25.03;46.78;95402.78;5028635;28;20017;-72
2021/09/29 02:26:11;;;;;;;7.18;5.40;;;;;;;25.03;46.93;95402.78;5028462;28;20048;-72
2021/09/29 02:28:37;;;;;;;7.25;5.07;;;;;;;24.92;46.78;95383.72;5027252;28;20022;-72
2021/09/29 02:31:02;;;;;;;7.88;5.47;;;;;;;25.00;47.11;95398.31;5044439;28;20017;-72
2021/09/29 02:33:28;;;;;;;6.85;4.88;;;;;;;25.01;46.44;95410.00;5029713;28;20030;-73
2021/09/29 02:35:53;;;;;;;7.35;5.28;;;;;;;25.00;46.73;95403.78;5037256;28;20029;-72
2021/09/29 02:38:18;;;;;;;8.18;5.50;;;;;;;24.99;46.68;95407.78;5044266;28;20021;-72
2021/09/29 02:40:44;;;;;;;7.22;5.07;;;;;;;24.99;46.94;95418.72;5049845;28;20073;-72
2021/09/29 02:43:09;;;;;;;6.63;4.93;;;;;;;24.87;46.57;95400.16;5037215;28;20025;-72
2021/09/29 02:45:35;;;;;;;6.18;5.03;;;;;;;24.92;46.55;95326.34;5031033;28;20025;-72
2021/09/29 02:48:00;;;;;;;6.22;4.75;;;;;;;24.99;46.73;95413.25;5026719;28;20038;-72
2021/09/29 02:50:26;;;;;;;7.68;4.80;;;;;;;24.89;46.68;95397.66;5028023;28;20056;-73
2021/09/29 02:52:51;;;;;;;7.25;5.22;;;;;;;24.96;46.50;95414.25;5028174;28;20108;-72
2021/09/29 02:55:17;;;;;;;5.75;4.57;;;;;;;24.96;46.56;95419.72;5027490;28;20029;-72
2021/09/29 02:57:42;;;;;;;5.68;4.30;;;;;;;24.97;46.78;95412.97;5028522;28;20423;-72
2021/09/29 03:00:08;;;;;;;5.57;4.25;;;;;;;24.95;46.72;95412.75;5028380;28;20507;-72
2021/09/29 03:02:34;;;;;;;6.35;4.68;;;;;;;24.96;46.63;95414.25;5028180;28;20107;-73
2021/09/29 03:04:59;;;;;;;5.63;4.28;;;;;;;24.95;46.42;95418.22;5029796;28;20033;-72
2021/09/29 03:07:25;;;;;;;6.60;4.50;;;;;;;24.96;46.85;95430.66;5039561;28;20029;-72
2021/09/29 03:09:50;;;;;;;6.70;4.50;;;;;;;24.95;46.32;95418.22;5038424;28;20029;-72
2021/09/29 03:12:15;;;;;;;4.88;3.78;;;;;;;24.95;46.59;95407.28;5029070;28;20033;-72
2021/09/29 03:14:41;;;;;;;6.60;4.45;;;;;;;24.94;46.37;95416.00;5043652;28;20029;-72
2021/09/29 03:17:06;;;;;;;5.68;4.00;;;;;;;24.93;46.67;95415.28;5027427;28;20033;-72
2021/09/29 03:19:32;;;;;;;5.00;3.65;;;;;;;24.95;46.49;95425.69;5010796;28;20029;-72
2021/09/29 03:21:57;;;;;;;5.80;3.92;;;;;;;24.94;46.49;95424.94;5007549;28;20033;-72
2021/09/29 03:24:23;;;;;;;5.93;4.22;;;;;;;24.93;46.64;95426.19;5006593;28;20099;-74
2021/09/29 03:26:48;;;;;;;5.50;3.75;;;;;;;24.93;46.32;95423.47;5007236;28;20029;-74
2021/09/29 03:29:14;;;;;;;4.65;3.90;;;;;;;24.92;46.30;95413.78;5007585;28;20033;-74
2021/09/29 03:31:40;;;;;;;5.55;4.00;;;;;;;24.90;46.84;95405.34;5007751;28;20109;-74
2021/09/29 03:34:05;;;;;;;5.95;3.80;;;;;;;24.89;46.45;95409.34;5007846;28;20180;-74
2021/09/29 03:36:31;;;;;;;5.50;3.90;;;;;;;24.91;46.48;95423.22;5008501;28;20034;-73
2021/09/29 03:39:00;;;;;;;5.72;4.03;;;;;;;24.91;46.45;95406.81;5007400;28;20033;-72
2021/09/29 03:41:25;;;;;;;4.03;3.13;;;;;;;24.91;46.44;95401.34;5007180;28;20041;-72
2021/09/29 03:43:51;;;;;;;5.45;4.05;;;;;;;24.89;46.22;95403.88;5022089;28;20463;-71
2021/09/29 03:46:16;;;;;;;4.90;3.95;;;;;;;24.89;46.55;95398.41;5007298;28;20025;-72
2021/09/29 03:48:42;;;;;;;6.78;3.70;;;;;;;24.91;46.23;95390.44;5007699;28;20418;-72
2021/09/29 03:51:08;;;;;;;5.22;3.80;;;;;;;24.90;46.10;95399.91;5021564;28;20033;-72
2021/09/29 03:53:33;;;;;;;5.28;3.53;;;;;;;24.90;46.04;95396.41;5026861;28;20037;-72
2021/09/29 03:55:59;;;;;;;5.13;3.75;;;;;;;24.90;45.95;95399.91;5026371;28;20434;-72
2021/09/29 03:58:24;;;;;;;5.68;3.95;;;;;;;24.89;46.07;95397.66;5026695;28;20507;-72
2021/09/29 04:00:50;;;;;;;5.13;3.78;;;;;;;24.88;46.03;95401.66;5026656;28;20041;-73
2021/09/29 04:03:15;;;;;;;4.47;3.42;;;;;;;24.81;46.45;95396.00;5026578;28;20060;-71
2021/09/29 04:05:40;;;;;;;4.35;3.30;;;;;;;24.87;46.29;95400.91;5026388;28;20048;-72
2021/09/29 04:08:06;;;;;;;4.25;3.05;;;;;;;24.87;45.90;95400.16;5026460;28;20040;-72
2021/09/29 04:10:31;;;;;;;5.97;3.70;;;;;;;24.87;46.55;95400.91;5026923;28;20486;-72
2021/09/29 04:12:58;;;;;;;5.93;3.60;;;;;;;24.88;46.07;95407.09;5041660;28;20056;-72
2021/09/29 04:15:24;;;;;;;4.93;3.70;;;;;;;24.87;46.26;95403.66;5026412;28;20495;-72
2021/09/29 04:17:50;;;;;;;6.13;3.30;;;;;;;24.87;46.01;95400.91;5026049;28;20029;-71
2021/09/29 04:20:15;;;;;;;4.18;3.10;;;;;;;24.77;46.42;95390.06;5026844;28;20025;-72
2021/09/29 04:22:41;;;;;;;4.55;3.45;;;;;;;24.86;45.90;95415.81;5024844;28;20042;-72
2021/09/29 04:25:07;;;;;;;5.20;3.42;;;;;;;24.86;46.31;95415.09;5021819;28;20029;-70
2021/09/29 04:27:32;;;;;;;5.65;3.10;;;;;;;24.87;46.00;95417.31;5023209;28;20040;-71
2021/09/29 04:29:58;;;;;;;5.25;3.33;;;;;;;24.87;46.28;95417.31;5027553;28;20055;-72
2021/09/29 04:32:23;;;;;;;4.65;3.17;;;;;;;24.87;46.17;95417.31;5006184;28;20029;-72
2021/09/29 04:34:49;;;;;;;4.88;3.05;;;;;;;24.90;46.36;95421.75;5004626;28;20095;-74
2021/09/29 04:37:14;;;;;;;4.75;3.30;;;;;;;24.89;46.09;95422.25;5006289;28;20416;-72
2021/09/29 04:39:39;;;;;;;4.43;3.13;;;;;;;24.92;46.50;95423.97;5006152;28;20022;-73
2021/09/29 04:42:05;;;;;;;4.53;3.10;;;;;;;24.94;45.88;95433.13;5006963;28;20036;-72
2021/09/29 04:44:30;;;;;;;4.93;3.30;;;;;;;24.98;46.10;95417.19;5007413;28;20037;-72
2021/09/29 04:46:56;;;;;;;4.97;3.20;;;;;;;25.05;45.82;95416.69;5006243;28;20034;-72
2021/09/29 04:49:21;;;;;;;6.65;3.28;;;;;;;25.10;45.59;95418.63;5007773;28;20029;-72
2021/09/29 04:51:48;;;;;;;5.35;3.33;;;;;;;25.18;45.75;95414.06;4976956;28;20535;-73
2021/09/29 04:54:13;;;;;;;5.93;3.30;;;;;;;25.23;45.48;95421.50;4999556;28;20032;-72
2021/09/29 04:56:39;;;;;;;5.13;3.63;;;;;;;25.32;45.42;95421.16;4989540;28;20085;-73
2021/09/29 04:59:05;;;;;;;6.10;2.97;;;;;;;25.44;45.67;95430.69;4989450;28;20034;-73
2021/09/29 05:01:30;;;;;;;1196.25;938.10;;;;;;;25.41;45.13;95404.38;4988887;28;20535;-72
2021/09/29 05:03:56;;;;;;;107.57;77.15;;;;;;;25.57;45.09;95428.09;4981050;28;20042;-73
2021/09/29 05:06:21;;;;;;;22.90;20.77;;;;;;;25.64;44.84;95427.53;4986833;28;20549;-73
2021/09/29 05:08:49;;;;;;;11.20;10.02;;;;;;;25.71;45.02;95443.38;4991736;28;20054;-73
2021/09/29 05:11:24;;;;;;;6.47;5.85;;;;;;;25.75;44.87;95444.56;4993374;28;20097;-72
2021/09/29 05:13:49;;;;;;;6.35;3.85;;;;;;;25.82;44.46;95439.25;5006086;28;20034;-72
2021/09/29 05:16:15;;;;;;;6.15;3.80;;;;;;;25.75;44.51;95427.44;5005598;28;20049;-76
2021/09/29 05:18:40;;;;;;;5.88;3.97;;;;;;;26.00;44.53;95444.03;5000910;28;20022;-72
2021/09/29 05:21:06;;;;;;;6.55;4.20;;;;;;;26.16;44.42;95440.34;4992056;28;20370;-76
2021/09/29 05:23:31;;;;;;;9.20;4.78;;;;;;;26.23;44.02;95449.97;4991290;28;20556;-75
2021/09/29 05:25:58;;;;;;;5.30;3.78;;;;;;;26.31;44.28;95457.13;4991834;28;20026;-77
2021/09/29 05:28:31;;;;;;;7.55;4.10;;;;;;;26.37;44.29;95455.78;4991434;28;20040;-73
2021/09/29 05:30:57;;;;;;;7.57;3.80;;;;;;;26.44;45.38;95460.66;5005437;28;20033;-77
2021/09/29 05:33:22;;;;;;;6.72;3.92;;;;;;;26.50;45.16;95464.06;4990135;28;20034;-74
2021/09/29 05:35:48;;;;;;;5.50;3.88;;;;;;;26.58;44.36;95456.00;4990731;28;20030;-75
2021/09/29 05:38:13;;;;;;;5.35;4.10;;;;;;;26.61;46.53;95458.44;4990906;28;20699;-78
2021/09/29 05:40:39;;;;;;;68.40;49.25;;;;;;;26.59;45.40;95465.69;4989611;28;20041;-79
2021/09/29 05:43:05;;;;;;;5.50;3.83;;;;;;;26.57;45.43;95468.22;4991427;28;20030;-75
2021/09/29 05:45:30;;;;;;;6.30;3.95;;;;;;;26.57;45.79;95462.72;4991546;28;20057;-77
2021/09/29 05:47:56;;;;;;;20.10;18.40;;;;;;;26.56;44.57;95472.19;4988184;28;20504;-77
2021/09/29 05:50:21;;;;;;;46.25;41.47;;;;;;;26.56;44.42;95480.41;4990974;28;20048;-77
2021/09/29 05:52:47;;;;;;;8.30;4.65;;;;;;;26.47;44.24;95475.31;4991474;28;20093;-76
2021/09/29 05:55:13;;;;;;;9.43;8.48;;;;;;;26.53;43.92;95474.00;4992204;28;20037;-76
2021/09/29 05:57:39;;;;;;;89.75;64.45;;;;;;;26.54;44.50;95474.72;5003325;28;20018;-81
2021/09/29 06:00:05;;;;;;;5.57;3.80;;;;;;;26.67;43.70;95478.28;5003465;28;20080;-76
2021/09/29 06:02:30;;;;;;;5.40;3.75;;;;;;;26.73;43.36;95489.16;5008689;28;20109;-76
2021/09/29 06:04:56;;;;;;;4.32;3.25;;;;;;;26.75;42.98;95483.91;4991787;28;20484;-77
2021/09/29 06:07:21;;;;;;;6.05;3.72;;;;;;;26.82;42.89;95495.72;4990834;28;20038;-76
2021/09/29 06:09:47;;;;;;;5.22;3.00;;;;;;;26.84;42.83;95497.94;4990486;28;20030;-78
2021/09/29 06:12:12;;;;;;;5.07;3.38;;;;;;;26.71;43.12;95484.19;4989854;28;20489;-78
2021/09/29 06:14:40;;;;;;;5.50;3.50;;;;;;;26.88;43.08;95504.63;4990187;28;20648;-76
2021/09/29 06:19:47;;;;;;;5.28;3.55;;;;;;;26.92;42.43;95498.84;4989686;28;20504;-75
2021/09/29 06:22:12;;;;;;;6.45;4.20;;;;;;;26.92;42.47;95499.59;4990675;28;20045;-76
2021/09/29 06:24:38;;;;;;;5.43;4.35;;;;;;;26.93;42.25;95506.56;4991683;28;20030;-80
2021/09/29 06:27:04;;;;;;;9.57;5.82;;;;;;;26.88;42.17;95501.88;4987692;28;20488;-78
2021/09/29 06:29:29;;;;;;;8.38;4.20;;;;;;;27.02;42.54;95508.91;4991988;28;20083;-75
2021/09/29 06:31:56;;;;;;;7.65;5.78;;;;;;;27.08;42.23;95512.31;4991229;28;20404;-75
2021/09/29 06:34:24;;;;;;;7.25;5.30;;;;;;;27.06;42.33;95503.88;4991491;28;20030;-77
2021/09/29 06:36:50;;;;;;;7.50;5.93;;;;;;;27.05;42.49;95513.34;4990124;28;20033;-73
2021/09/29 06:39:16;;;;;;;7.55;6.80;;;;;;;27.08;42.87;95517.06;5007118;28;20432;-74
2021/09/29 06:41:41;;;;;;;8.20;7.40;;;;;;;27.08;42.43;95517.78;5012854;28;20089;-75
2021/09/29 06:44:08;;;;;;;7.28;6.53;;;;;;;27.11;42.64;95522.22;4994716;28;20033;-73
2021/09/29 06:46:34;;;;;;;7.35;6.65;;;;;;;26.83;42.57;95486.25;4988533;28;20128;-74
2021/09/29 06:49:00;;;;;;;10.23;9.23;;;;;;;27.03;42.58;95529.59;4971965;28;20105;-74
2021/09/29 06:51:26;;;;;;;11.07;10.13;;;;;;;27.01;42.37;95523.91;4989482;28;20026;-74
2021/09/29 06:53:55;;;;;;;8.25;7.43;;;;;;;26.94;42.92;95523.75;4988996;28;20464;-74
2021/09/29 06:56:23;;;;;;;11.00;9.93;;;;;;;26.91;42.96;95522.78;4992539;28;20033;-75
2021/09/29 06:58:52;;;;;;;11.20;10.15;;;;;;;26.75;43.24;95511.31;4992390;28;20028;-74
2021/09/29 07:01:22;;;;;;;12.30;11.07;;;;;;;26.81;43.42;95532.59;4987646;28;20145;-74
2021/09/29 07:03:56;;;;;;;11.13;9.95;;;;;;;26.75;43.09;95528.47;4970591;28;20402;-73
2021/09/29 07:06:22;;;;;;;7.72;6.45;;;;;;;26.71;43.37;95528.06;4987346;28;20543;-73
2021/09/29 07:08:47;;;;;;;10.18;9.15;;;;;;;26.66;43.10;95525.38;4988503;28;20026;-74
2021/09/29 07:11:15;;;;;;;9.88;8.98;;;;;;;26.64;43.37;95527.91;4986678;28;20019;-74
2021/09/29 07:13:41;;;;;;;7.88;7.10;;;;;;;26.61;43.25;95531.69;4987479;28;20456;-75
2021/09/29 07:16:06;;;;;;;9.38;7.63;;;;;;;26.52;43.33;95540.25;4986674;28;20030;-74
2021/09/29 07:18:32;;;;;;;7.68;6.25;;;;;;;26.48;43.69;95537.06;5002966;28;20022;-73
2021/09/29 07:21:00;;;;;;;8.35;5.30;;;;;;;26.44;43.47;95542.09;4988420;28;20089;-74
2021/09/29 07:23:26;;;;;;;5.70;3.50;;;;;;;26.39;43.41;95545.63;4986722;28;20029;-74
2021/09/29 07:25:52;;;;;;;5.70;3.42;;;;;;;26.33;43.44;95542.22;4988277;28;20026;-73
2021/09/29 07:28:17;;;;;;;6.18;3.00;;;;;;;26.26;43.53;95537.28;4987602;28;20019;-75
2021/09/29 07:30:45;;;;;;;5.00;3.17;;;;;;;26.24;43.75;95533.59;4987137;28;20448;-75
2021/09/29 07:33:11;;;;;;;7.00;3.53;;;;;;;26.18;43.77;95552.81;4990024;28;20018;-75
2021/09/29 07:35:38;;;;;;;4.43;3.08;;;;;;;26.06;44.33;95535.03;4988322;28;20682;-75
2021/09/29 07:38:03;;;;;;;4.93;3.55;;;;;;;26.07;44.05;95547.47;4986609;28;20037;-73
2021/09/29 07:40:29;;;;;;;4.97;3.13;;;;;;;26.02;44.35;95540.06;4988230;28;20022;-74
2021/09/29 07:42:55;;;;;;;4.95;3.00;;;;;;;25.83;44.18;95525.59;4988276;28;20029;-79
2021/09/29 07:45:21;;;;;;;4.75;3.50;;;;;;;25.95;44.44;95540.63;4988323;28;20025;-74
2021/09/29 07:47:46;;;;;;;5.18;3.47;;;;;;;25.84;44.62;95529.81;5002061;28;20031;-74
2021/09/29 07:50:12;;;;;;;5.57;3.60;;;;;;;25.95;44.55;95546.09;4986859;28;20038;-74
2021/09/29 07:52:38;;;;;;;4.80;3.30;;;;;;;25.93;44.44;95545.88;4987922;28;20022;-74
2021/09/29 07:55:04;;;;;;;5.85;3.67;;;;;;;25.93;44.19;95548.63;4987212;28;20037;-75
2021/09/29 07:57:32;;;;;;;5.55;3.35;;;;;;;25.91;44.30;95551.13;4987904;28;20022;-75
2021/09/29 07:59:57;;;;;;;5.85;3.63;;;;;;;25.78;44.32;95535.84;4986694;28;20037;-73
2021/09/29 08:02:23;;;;;;;5.85;4.03;;;;;;;25.82;44.45;95564.41;4986256;28;20054;-74
2021/09/29 08:04:48;;;;;;;8.07;3.90;;;;;;;25.83;44.50;95555.69;4987085;28;20031;-74
2021/09/29 08:07:15;;;;;;;6.68;3.88;;;;;;;25.81;44.78;95550.00;4987278;28;20053;-74
2021/09/29 08:09:40;;;;;;;7.65;3.75;;;;;;;25.75;44.37;95554.00;4998905;28;20030;-74
2021/09/29 08:12:06;;;;;;;6.00;3.65;;;;;;;25.63;44.69;95551.88;4987042;28;20031;-74
2021/09/29 08:14:32;;;;;;;5.57;3.60;;;;;;;25.60;44.41;95541.94;4986414;28;20172;-75
2021/09/29 08:16:58;;;;;;;5.72;3.75;;;;;;;25.73;44.63;95561.25;4987463;28;20026;-73
2021/09/29 08:19:23;;;;;;;6.35;4.32;;;;;;;25.72;44.70;95559.78;4987634;28;20042;-73
2021/09/29 08:21:49;;;;;;;7.88;4.03;;;;;;;25.59;45.08;95545.94;5002781;28;20030;-73
2021/09/29 08:24:18;;;;;;;6.15;4.35;;;;;;;25.67;44.72;95557.84;4987858;28;20030;-73
2021/09/29 08:31:53;;;;;;;5.60;4.05;;;;;;;25.60;44.80;95563.84;4982216;28;20045;-73
2021/09/29 08:34:32;;;;;;;5.63;3.92;;;;;;;25.56;44.76;95568.81;4970703;28;20022;-73
2021/09/29 08:37:18;;;;;;;6.90;4.63;;;;;;;25.57;44.91;95565.59;4988034;28;20030;-73
2021/09/29 08:39:52;;;;;;;6.70;4.53;;;;;;;25.55;44.96;95561.88;4987087;28;20030;-73
2021/09/29 08:47:38;;;;;;;7.55;5.28;;;;;;;25.51;45.24;95567.63;4993215;28;20120;-73
2021/09/29 08:50:14;;;;;;;6.95;4.88;;;;;;;25.51;45.13;95561.41;4985828;28;20104;-73
2021/09/29 08:52:50;;;;;;;7.68;4.50;;;;;;;25.48;45.00;95567.91;4966769;28;20034;-73
2021/09/29 08:58:17;;;;;;;7.80;4.75;;;;;;;25.39;44.63;95565.50;4966637;28;20097;-73
2021/09/29 09:17:01;;;;;;;9.43;6.18;;;;;;;25.48;45.20;95568.63;4972781;28;20086;-74
2021/09/29 09:19:28;;;;;;;8.55;6.20;;;;;;;25.52;44.78;95568.38;4985440;28;20117;-74
2021/09/29 09:21:56;;;;;;;8.93;6.50;;;;;;;25.57;45.34;95571.06;4985704;28;20048;-74
2021/09/29 09:24:23;;;;;;;10.15;6.30;;;;;;;25.56;45.10;95557.88;4986263;28;20511;-74
2021/09/29 09:27:17;;;;;;;11.20;6.80;;;;;;;25.71;45.49;95571.97;4984352;28;20052;-74
2021/09/29 09:29:51;;;;;;;9.05;6.40;;;;;;;25.80;44.89;95578.59;4997835;28;20505;-75
2021/09/29 09:32:18;;;;;;;9.35;6.57;;;;;;;25.89;44.50;95580.28;4983374;28;20030;-78
2021/09/29 09:34:44;;;;;;;10.68;7.15;;;;;;;25.96;43.99;95579.69;4985567;28;20654;-77
2021/09/29 09:37:11;;;;;;;12.98;7.53;;;;;;;26.07;43.85;95574.09;4985688;28;20037;-80
2021/09/29 09:39:36;;;;;;;10.68;7.32;;;;;;;25.98;43.82;95556.03;5000940;28;20492;-85
2021/09/29 09:42:02;;;;;;;9.90;6.53;;;;;;;26.22;43.51;95585.38;4984208;28;20053;-78
2021/09/29 09:44:29;;;;;;;10.85;7.43;;;;;;;26.16;43.29;95566.28;4986486;28;20405;-86
2021/09/29 09:47:10;;;;;;;9.95;6.93;;;;;;;26.36;43.34;95579.53;4984558;28;20064;-82
2021/09/29 09:49:51;;;;;;;11.00;7.35;;;;;;;26.38;42.84;95566.06;4985429;28;20033;-85
2021/09/29 09:52:33;;;;;;;12.23;7.50;;;;;;;26.54;42.69;95584.31;4985813;28;20517;-80
2021/09/29 09:55:07;;;;;;;11.20;7.68;;;;;;;26.59;42.60;95580.75;4989343;28;20523;-85
2021/09/29 09:57:34;;;;;;;12.25;8.50;;;;;;;26.60;42.28;95582.97;4988922;28;20032;-82
2021/09/29 09:59:59;;;;;;;12.93;8.18;;;;;;;26.58;42.64;95573.81;4987601;28;20038;-81
2021/09/29 10:02:25;;;;;;;12.48;7.65;;;;;;;26.80;42.53;95583.22;4988281;28;20455;-82
2021/09/29 10:04:50;;;;;;;11.77;7.78;;;;;;;26.82;42.19;95583.44;4990633;28;20531;-80
2021/09/29 10:07:16;;;;;;;11.70;8.10;;;;;;;26.85;42.26;95576.91;4991512;28;20069;-85
2021/09/29 10:12:38;;;;;;;12.35;7.85;;;;;;;26.96;41.71;95582.28;5019279;28;20081;-81
2021/09/29 10:23:16;;;;;;;12.05;8.60;;;;;;;27.13;41.32;95574.56;5001150;28;20041;-74
2021/09/29 10:26:09;;;;;;;12.10;7.85;;;;;;;27.23;41.09;95572.91;5013382;28;20018;-77
2021/09/29 10:28:38;;;;;;;12.45;8.20;;;;;;;27.22;41.73;95576.94;5003323;28;20026;-78
2021/09/29 10:31:16;;;;;;;12.17;8.13;;;;;;;27.27;41.58;95576.09;5003587;28;20026;-77
2021/09/29 10:33:44;;;;;;;12.38;8.30;;;;;;;27.34;40.69;95578.25;5006934;28;20389;-78
2021/09/29 10:41:50;;;;;;;12.55;8.60;;;;;;;27.27;41.19;95578.84;4987196;28;20080;-76
2021/09/29 10:44:24;;;;;;;;;;;;;;;27.29;41.25;95577.06;4988106;28;20022;-76
2021/09/29 10:47:00;;;;;;;13.38;8.93;;;;;;;27.32;41.13;95586.25;4987763;28;20546;-76
2021/09/29 11:08:16;;;;;;;15.15;10.30;;;;;;;27.44;41.43;95571.09;4986991;28;20037;-77
2021/09/29 11:30:05;;;;;;;16.33;11.20;;;;;;;27.40;41.57;95548.72;4988305;28;20056;-74
2021/09/29 11:32:35;;;;;;;15.82;10.55;;;;;;;27.38;41.59;95557.47;4987140;28;20221;-74
2021/09/29 11:35:15;;;;;;;17.15;11.20;;;;;;;27.31;41.02;95552.59;4988703;28;20125;-74
2021/09/29 11:48:39;;;;;;;16.73;11.77;;;;;;;27.20;41.84;95557.50;4966975;28;20034;-74
2021/09/29 12:10:29;;;;;;;714.67;528.63;;;;;;;26.31;43.52;95552.97;5040183;28;20026;-70
2021/09/29 12:12:55;;;;;;;712.40;528.85;;;;;;;26.25;43.55;95497.50;5036319;28;20025;-70
2021/09/29 12:15:21;;;;;;;713.58;529.80;;;;;;;26.13;43.48;95533.72;5022448;28;20029;-70
2021/09/29 12:17:50;;;;;;;749.75;580.53;;;;;;;26.18;43.67;95552.81;5035684;28;20025;-70
2021/09/29 12:20:18;;;;;;;697.83;516.50;;;;;;;26.15;43.84;95559.31;5024874;28;20033;-70
2021/09/29 12:22:48;;;;;;;531.83;327.08;;;;;;;26.10;44.33;95551.91;5022236;28;20049;-70
2021/09/29 12:25:23;;;;;;;501.45;300.13;;;;;;;26.09;44.21;95558.63;5030905;28;20064;-70
2021/09/29 12:27:55;;;;;;;521.25;317.80;;;;;;;25.99;44.23;95540.34;5032326;28;20680;-70
2021/09/29 12:30:33;;;;;;;477.60;278.33;;;;;;;26.04;44.32;95559.44;5038826;28;20048;-70
2021/09/29 12:35:49;;;;;;;476.83;279.88;;;;;;;25.97;44.34;95554.53;5022687;28;20599;-70
2021/09/29 12:38:14;;;;;;;472.17;274.25;;;;;;;25.97;44.07;95549.06;5036208;28;20018;-70
2021/09/29 12:40:42;;;;;;;454.85;257.98;;;;;;;25.94;44.59;95543.88;5034479;28;20088;-69
2021/09/29 12:43:18;;;;;;;459.88;263.55;;;;;;;25.79;44.22;95537.34;5037401;28;20033;-70
2021/09/29 12:45:47;;;;;;;417.73;232.00;;;;;;;25.88;44.71;95551.41;5023051;28;20025;-69
2021/09/29 12:48:13;;;;;;;417.02;231.18;;;;;;;25.85;44.60;95553.16;5022029;28;20054;-70
2021/09/29 12:50:46;;;;;;;364.98;194.50;;;;;;;25.82;44.42;95543.25;5022123;28;20033;-70
2021/09/29 12:53:24;;;;;;;394.23;213.82;;;;;;;25.85;44.91;95542.22;5036467;28;20041;-70
2021/09/29 12:58:20;;;;;;;355.73;188.88;;;;;;;25.82;44.64;95542.50;5017601;28;20044;-70
2021/09/29 13:00:46;;;;;;;337.17;180.20;;;;;;;25.80;44.35;95534.81;5009157;28;20033;-70
2021/09/29 13:03:12;;;;;;;201.68;121.85;;;;;;;25.73;44.32;95533.91;5009003;28;20096;-70
2021/09/29 13:05:38;;;;;;;232.07;132.93;;;;;;;25.79;44.90;95553.75;5007340;28;20030;-70
2021/09/29 13:08:04;;;;;;;186.30;116.60;;;;;;;25.76;44.76;95539.09;5009584;28;20450;-70
2021/09/29 13:10:30;;;;;;;215.52;126.72;;;;;;;25.76;44.87;95549.31;5028004;28;20106;-70
2021/09/29 13:12:56;;;;;;;184.20;115.65;;;;;;;25.75;44.59;95542.34;5010659;28;20017;-69
2021/09/29 13:15:22;;;;;;;207.75;124.15;;;;;;;25.74;44.78;95535.38;5023178;28;20503;-70
2021/09/29 13:17:51;;;;;;;230.48;133.00;;;;;;;25.74;45.09;95540.84;5024758;28;20025;-70
2021/09/29 13:20:26;;;;;;;;;;;;;;;25.74;45.01;95546.31;5028085;28;20029;-70
2021/09/29 13:22:56;;;;;;;219.27;128.10;;;;;;;25.64;44.74;95515.06;5022301;28;20283;-70
2021/09/29 13:35:10;;;;;;;241.20;137.05;;;;;;;25.88;44.60;95529.50;5006761;28;20505;-70
2021/09/29 13:38:50;;;;;;;240.88;137.65;;;;;;;25.96;44.19;95530.41;5007630;28;20033;-70
2021/09/29 13:41:15;;;;;;;174.43;112.05;;;;;;;26.01;44.39;95533.09;5011217;28;20034;-70
2021/09/29 13:43:42;;;;;;;153.90;104.28;;;;;;;26.05;44.25;95527.34;5008140;28;20029;-70